createdAt,value
2022-08-23T00:01:29.176Z,98824.34
2022-08-23T00:06:23.865Z,98825.72
2022-08-23T00:11:29.767Z,98824.91
2022-08-23T00:16:22.294Z,98818.06
2022-08-23T00:21:13.973Z,98813.94
2022-08-23T00:26:06.236Z,98824.84
2022-08-23T00:30:59.167Z,98829.53
2022-08-23T00:35:50.798Z,98830.47
2022-08-23T00:40:53.427Z,98821.69
2022-08-23T00:46:11.632Z,98809.38
2022-08-23T00:51:23.458Z,98816.78
2022-08-23T00:56:17.991Z,98802.03
2022-08-23T01:01:09.966Z,98813.88
2022-08-23T01:06:13.714Z,98820.19
2022-08-23T01:11:22.352Z,98819.38
2022-08-23T01:16:19.014Z,98828.69
2022-08-23T01:21:16.899Z,98825.44
2022-08-23T01:26:10.435Z,98834.75
2022-08-23T01:31:03.116Z,98825.44
2022-08-23T01:35:59.090Z,98827.34
2022-08-23T01:40:52.914Z,98834.25
2022-08-23T01:45:44.706Z,98837.00
2022-08-23T01:55:28.275Z,98839.53
2022-08-23T02:00:23.138Z,98848.88
2022-08-23T02:05:17.323Z,98833.25
2022-08-23T02:10:11.608Z,98828.03
2022-08-23T02:15:05.161Z,98831.59
2022-08-23T02:19:57.415Z,98826.69
2022-08-23T02:24:49.282Z,98827.78
2022-08-23T02:29:42.045Z,98816.56
2022-08-23T02:34:36.503Z,98814.13
2022-08-23T02:39:28.790Z,98811.94
2022-08-23T02:44:20.634Z,98801.81
2022-08-23T02:49:12.600Z,98807.88
2022-08-23T02:54:05.515Z,98808.50
2022-08-23T02:58:57.442Z,98806.63
2022-08-23T03:03:49.194Z,98819.22
2022-08-23T03:08:41.501Z,98826.41
2022-08-23T03:13:33.736Z,98811.84
2022-08-23T03:18:25.318Z,98811.84
2022-08-23T03:23:17.127Z,98818.75
2022-08-23T03:28:08.906Z,98818.75
2022-08-23T03:33:01.617Z,98817.09
2022-08-23T03:37:55.352Z,98823.66
2022-08-23T03:42:47.090Z,98823.16
2022-08-23T03:47:39.509Z,98831.94
2022-08-23T03:52:31.430Z,98828.97
2022-08-23T03:57:23.101Z,98839.38
2022-08-23T04:02:15.911Z,98816.13
2022-08-23T04:07:07.961Z,98812.28
2022-08-23T04:11:59.672Z,98816.97
2022-08-23T04:16:51.356Z,98822.19
2022-08-23T04:21:48.468Z,98822.75
2022-08-23T04:26:41.434Z,98840.06
2022-08-23T04:31:35.944Z,98835.13
2022-08-23T04:36:34.793Z,98833.81
2022-08-23T04:41:47.008Z,98827.25
2022-08-23T04:46:39.911Z,98827.00
2022-08-23T04:51:31.637Z,98822.91
2022-08-23T04:56:26.289Z,98817.94
2022-08-23T05:01:18.037Z,98821.25
2022-08-23T05:06:09.736Z,98829.41
2022-08-23T05:11:03.614Z,98843.06
2022-08-23T05:15:55.322Z,98829.09
2022-08-23T05:20:48.740Z,98838.97
2022-08-23T05:25:53.231Z,98850.44
2022-08-23T05:30:56.356Z,98855.94
2022-08-23T05:35:48.740Z,98871.00
2022-08-23T05:40:40.457Z,98878.66
2022-08-23T05:45:32.032Z,98873.19
2022-08-23T05:50:24.358Z,98877.81
2022-08-23T05:55:16.082Z,98882.47
2022-08-23T06:00:13.300Z,98878.34
2022-08-23T06:05:05.602Z,98885.19
2022-08-23T06:09:57.917Z,98872.56
2022-08-23T06:14:49.596Z,98881.91
2022-08-23T06:19:41.256Z,98862.44
2022-08-23T06:24:33.395Z,98876.44
2022-08-23T06:29:25.065Z,98870.69
2022-08-23T06:34:19.150Z,98864.91
2022-08-23T06:39:11.523Z,98873.69
2022-08-23T06:44:04.103Z,98882.97
2022-08-23T06:48:57.701Z,98895.28
2022-08-23T06:53:50.518Z,98882.94
2022-08-23T06:58:42.183Z,98891.13
2022-08-23T07:03:36.602Z,98895.75
2022-08-23T07:08:28.585Z,98892.50
2022-08-23T07:13:20.179Z,98901.81
2022-08-23T07:18:13.677Z,98905.94
2022-08-23T07:23:05.460Z,98914.09
2022-08-23T07:27:57.266Z,98910.22
2022-08-23T07:32:49.455Z,98915.38
2022-08-23T07:37:41.379Z,98912.09
2022-08-23T07:42:33.685Z,98916.59
2022-08-23T07:47:25.424Z,98914.28
2022-08-23T07:52:17.180Z,98926.94
2022-08-23T07:57:09.303Z,98915.41
2022-08-23T08:02:01.014Z,98925.38
2022-08-23T08:07:16.952Z,98925.28
2022-08-23T08:12:04.894Z,98918.00
2022-08-23T08:16:58.818Z,98929.75
2022-08-23T08:21:51.328Z,98926.09
2022-08-23T08:26:44.153Z,98931.25
2022-08-23T08:31:38.184Z,98917.47
2022-08-23T08:36:37.288Z,98923.22
2022-08-23T08:42:04.320Z,98918.22
2022-08-23T08:46:59.899Z,98918.09
2022-08-23T08:52:16.634Z,98922.19
2022-08-23T08:57:11.520Z,98925.28
2022-08-23T09:02:07.707Z,98924.59
2022-08-23T09:07:31.447Z,98925.28
2022-08-23T09:12:46.758Z,98921.53
2022-08-23T09:18:10.651Z,98933.09
2022-08-23T09:23:17.198Z,98939.41
2022-08-23T09:28:08.891Z,98931.59
2022-08-23T09:33:16.531Z,98942.84
2022-08-23T09:38:14.126Z,98937.75
2022-08-23T09:43:13.232Z,98948.41
2022-08-23T09:48:06.750Z,98954.78
2022-08-23T09:53:04.351Z,98954.19
2022-08-23T09:57:56.265Z,98944.56
2022-08-23T10:02:48.204Z,98953.69
2022-08-23T10:07:43.247Z,98947.31
2022-08-23T10:12:35.152Z,98943.91
2022-08-23T10:17:43.936Z,98953.84
2022-08-23T10:23:06.519Z,98938.34
2022-08-23T10:28:23.007Z,98947.00
2022-08-23T10:33:29.823Z,98946.22
2022-08-23T10:38:46.305Z,98947.47
2022-08-23T10:43:56.919Z,98950.53
2022-08-23T10:48:54.881Z,98963.50
2022-08-23T10:53:56.839Z,98972.72
2022-08-23T10:58:56.510Z,98980.44
2022-08-23T11:04:27.074Z,98969.22
2022-08-23T11:09:21.549Z,98964.00
2022-08-23T11:14:45.560Z,98961.88
2022-08-23T11:19:54.019Z,98969.59
2022-08-23T11:24:56.189Z,98975.50
2022-08-23T11:29:47.956Z,98984.31
2022-08-23T11:35:00.540Z,98974.44
2022-08-23T11:39:58.194Z,98984.72
2022-08-23T11:44:50.538Z,98986.06
2022-08-23T11:50:12.052Z,98981.00
2022-08-23T11:55:42.362Z,98970.97
2022-08-23T12:00:55.435Z,98976.13
2022-08-23T12:05:52.894Z,98985.03
2022-08-23T12:10:45.306Z,98979.88
2022-08-23T12:16:16.637Z,98969.16
2022-08-23T12:21:30.053Z,98974.53
2022-08-23T12:26:59.160Z,98971.41
2022-08-23T12:32:02.866Z,98947.06
2022-08-23T12:37:15.155Z,98947.63
2022-08-23T12:42:16.225Z,98951.50
2022-08-23T12:47:15.783Z,98945.38
2022-08-23T12:52:12.334Z,98937.81
2022-08-23T12:57:11.646Z,98942.59
2022-08-23T13:02:08.670Z,98950.00
2022-08-23T13:07:05.885Z,98939.53
2022-08-23T13:11:59.054Z,98941.53
2022-08-23T13:16:51.446Z,98942.03
2022-08-23T13:21:43.988Z,98950.47
2022-08-23T13:26:39.123Z,98950.31
2022-08-23T13:32:03.213Z,98950.00
2022-08-23T13:36:58.927Z,98951.66
2022-08-23T13:41:50.821Z,98954.78
2022-08-23T13:46:47.611Z,98940.91
2022-08-23T13:51:40.498Z,98946.63
2022-08-23T13:56:37.310Z,98946.28
2022-08-23T14:01:29.956Z,98954.97
2022-08-23T14:06:21.716Z,98947.16
2022-08-23T14:11:15.989Z,98942.63
2022-08-23T14:21:21.054Z,98942.94
2022-08-23T14:26:17.426Z,98940.13
2022-08-23T14:31:09.148Z,98943.25
2022-08-23T14:36:00.918Z,98945.19
2022-08-23T14:40:59.049Z,98944.41
2022-08-23T14:45:51.280Z,98942.28
2022-08-23T14:50:43.145Z,98957.28
2022-08-23T14:55:34.889Z,98947.97
2022-08-23T15:00:27.032Z,98961.03
2022-08-23T15:05:19.382Z,98957.63
2022-08-23T15:10:49.754Z,98959.06
2022-08-23T15:15:25.577Z,98943.59
2022-08-23T15:20:17.314Z,98948.81
2022-08-23T15:25:09.148Z,98953.38
2022-08-23T15:30:00.817Z,98964.78
2022-08-23T15:34:52.578Z,98972.78
2022-08-23T15:39:44.415Z,98974.72
2022-08-23T15:44:36.077Z,98975.34
2022-08-23T15:49:29.288Z,98973.22
2022-08-23T15:54:23.677Z,98977.09
2022-08-23T15:59:19.193Z,98981.81
2022-08-23T16:04:11.364Z,98987.16
2022-08-23T16:09:05.256Z,98985.84
2022-08-23T16:13:56.989Z,98986.16
2022-08-23T16:18:51.668Z,98993.47
2022-08-23T16:23:44.450Z,98981.06
2022-08-23T16:28:36.074Z,98994.91
2022-08-23T16:33:27.901Z,99000.09
2022-08-23T16:38:19.654Z,98985.59
2022-08-23T16:43:11.337Z,98990.16
2022-08-23T16:48:05.256Z,98981.66
2022-08-23T16:52:56.970Z,98978.88
2022-08-23T16:57:48.590Z,98980.97
2022-08-23T17:02:41.127Z,98987.94
2022-08-23T17:07:32.939Z,98986.63
2022-08-23T17:12:26.026Z,98983.84
2022-08-23T17:17:18.329Z,98989.53
2022-08-23T17:22:10.715Z,98999.41
2022-08-23T17:27:02.378Z,98993.84
2022-08-23T17:31:54.286Z,99007.81
2022-08-23T17:36:52.323Z,99009.53
2022-08-23T17:41:45.497Z,99010.06
2022-08-23T17:46:40.471Z,99012.47
2022-08-23T17:51:33.143Z,98997.34
2022-08-23T17:56:24.969Z,98995.22
2022-08-23T18:01:18.830Z,98998.47
2022-08-23T18:06:16.723Z,98997.44
2022-08-23T18:11:08.851Z,99010.34
2022-08-23T18:16:01.292Z,99033.69
2022-08-23T18:20:53.088Z,99034.75
2022-08-23T18:25:45.829Z,99041.34
2022-08-23T18:30:50.121Z,99039.19
2022-08-23T18:35:43.533Z,99042.16
2022-08-23T18:40:45.392Z,99034.69
2022-08-23T18:45:38.563Z,99043.41
2022-08-23T18:50:30.210Z,99044.63
2022-08-23T18:55:21.898Z,99035.03
2022-08-23T19:00:13.837Z,99049.13
2022-08-23T19:05:06.020Z,99058.94
2022-08-23T19:09:57.811Z,99064.69
2022-08-23T19:14:49.626Z,99060.38
2022-08-23T19:19:41.590Z,99053.50
2022-08-23T19:24:33.927Z,99060.44
2022-08-23T19:29:28.437Z,99053.09
2022-08-23T19:34:22.258Z,99068.09
2022-08-23T19:39:14.489Z,99078.94
2022-08-23T19:44:07.990Z,99082.91
2022-08-23T19:49:00.219Z,99088.53
2022-08-23T19:54:04.733Z,99085.34
2022-08-23T19:59:03.214Z,99086.78
2022-08-23T20:03:55.121Z,99093.72
2022-08-23T20:08:46.926Z,99097.88
2022-08-23T20:13:38.586Z,99101.78
2022-08-23T20:18:30.251Z,99104.59
2022-08-23T20:23:44.919Z,99101.81
2022-08-23T20:28:36.941Z,99086.16
2022-08-23T20:33:28.582Z,99084.56
2022-08-23T20:38:33.216Z,99090.66
2022-08-23T20:43:25.726Z,99093.19
2022-08-23T20:48:18.819Z,99093.44
2022-08-23T20:53:12.841Z,99090.78
2022-08-23T20:58:04.954Z,99082.31
2022-08-23T21:02:56.938Z,99072.50
2022-08-23T21:07:48.931Z,99092.38
2022-08-23T21:12:41.249Z,99108.28
2022-08-23T21:17:32.935Z,99107.91
2022-08-23T21:22:32.222Z,99103.88
2022-08-23T21:27:24.038Z,99104.34
2022-08-23T21:32:15.847Z,99093.94
2022-08-23T21:37:07.558Z,99092.69
2022-08-23T21:41:59.155Z,99077.38
2022-08-23T21:46:50.818Z,99083.78
2022-08-23T21:51:43.703Z,99080.53
2022-08-23T21:56:37.086Z,99071.84
2022-08-23T22:01:31.057Z,99070.25
2022-08-23T22:06:23.126Z,99064.50
2022-08-23T22:11:15.798Z,99069.19
2022-08-23T22:16:07.950Z,99070.25
2022-08-23T22:20:59.994Z,99062.88
2022-08-23T22:25:51.779Z,99049.72
2022-08-23T22:30:43.757Z,99061.34
2022-08-23T22:35:36.384Z,99067.72
2022-08-23T22:40:28.275Z,99066.91
2022-08-23T22:45:20.006Z,99069.88
2022-08-23T22:50:12.524Z,99066.91
2022-08-23T22:55:05.269Z,99068.00
2022-08-23T22:59:57.853Z,99066.97
2022-08-23T23:04:50.309Z,99061.22
2022-08-23T23:09:41.945Z,99061.22
2022-08-23T23:14:33.640Z,99054.09
2022-08-23T23:19:45.798Z,99045.00
2022-08-23T23:24:40.222Z,99053.81
2022-08-23T23:29:32.513Z,99059.31
2022-08-23T23:34:24.291Z,99052.16
2022-08-23T23:39:16.438Z,99048.59
2022-08-23T23:44:08.863Z,99054.91
2022-08-23T23:49:00.778Z,99052.44
2022-08-23T23:53:53.726Z,99050.56
2022-08-23T23:58:48.365Z,99056.06
